sensor_id;sensor_type;location;lat;lon;timestamp;P1;durP1;ratioP1;P2;durP2;ratioP2
11596;SDS011;5854;48.072;16.286;2023-05-02T00:01:22;2.75;;;2.55;;
11596;SDS011;5854;48.072;16.286;2023-05-02T00:03:49;4.22;;;2.55;;
11596;SDS011;5854;48.072;16.286;2023-05-02T00:06:18;6.13;;;4.07;;
11596;SDS011;5854;48.072;16.286;2023-05-02T00:08:45;2.75;;;2.55;;
11596;SDS011;5854;48.072;16.286;2023-05-02T00:11:14;5.43;;;2.70;;
11596;SDS011;5854;48.072;16.286;2023-05-02T00:13:41;4.80;;;2.88;;
11596;SDS011;5854;48.072;16.286;2023-05-02T00:16:08;9.85;;;3.03;;
11596;SDS011;5854;48.072;16.286;2023-05-02T00:18:36;4.43;;;2.85;;
11596;SDS011;5854;48.072;16.286;2023-05-02T00:21:03;3.65;;;3.08;;
11596;SDS011;5854;48.072;16.286;2023-05-02T00:23:31;3.03;;;2.83;;
11596;SDS011;5854;48.072;16.286;2023-05-02T00:25:58;4.07;;;2.85;;
11596;SDS011;5854;48.072;16.286;2023-05-02T00:28:25;5.13;;;3.28;;
11596;SDS011;5854;48.072;16.286;2023-05-02T00:30:52;4.40;;;3.15;;
11596;SDS011;5854;48.072;16.286;2023-05-02T00:33:20;3.58;;;2.53;;
11596;SDS011;5854;48.072;16.286;2023-05-02T00:35:47;3.13;;;2.88;;
11596;SDS011;5854;48.072;16.286;2023-05-02T00:38:14;4.00;;;2.58;;
11596;SDS011;5854;48.072;16.286;2023-05-02T00:40:43;2.95;;;2.58;;
11596;SDS011;5854;48.072;16.286;2023-05-02T00:43:12;2.70;;;2.50;;
11596;SDS011;5854;48.072;16.286;2023-05-02T00:45:40;3.10;;;2.58;;
11596;SDS011;5854;48.072;16.286;2023-05-02T00:48:10;4.85;;;3.00;;
11596;SDS011;5854;48.072;16.286;2023-05-02T00:50:38;4.70;;;2.97;;
11596;SDS011;5854;48.072;16.286;2023-05-02T00:53:07;3.40;;;3.03;;
11596;SDS011;5854;48.072;16.286;2023-05-02T00:55:35;4.93;;;2.92;;
11596;SDS011;5854;48.072;16.286;2023-05-02T00:58:05;3.25;;;3.05;;
11596;SDS011;5854;48.072;16.286;2023-05-02T01:00:38;5.05;;;3.05;;
11596;SDS011;5854;48.072;16.286;2023-05-02T01:03:23;9.75;;;3.45;;
11596;SDS011;5854;48.072;16.286;2023-05-02T01:06:05;17.10;;;3.80;;
11596;SDS011;5854;48.072;16.286;2023-05-02T01:08:49;5.22;;;2.83;;
11596;SDS011;5854;48.072;16.286;2023-05-02T01:11:23;4.03;;;3.65;;
11596;SDS011;5854;48.072;16.286;2023-05-02T01:14:02;3.60;;;3.30;;
11596;SDS011;5854;48.072;16.286;2023-05-02T01:16:31;4.80;;;3.28;;
11596;SDS011;5854;48.072;16.286;2023-05-02T01:19:02;5.18;;;4.13;;
11596;SDS011;5854;48.072;16.286;2023-05-02T01:21:36;4.80;;;4.10;;
11596;SDS011;5854;48.072;16.286;2023-05-02T01:24:05;4.35;;;3.67;;
11596;SDS011;5854;48.072;16.286;2023-05-02T01:26:41;4.80;;;4.05;;
11596;SDS011;5854;48.072;16.286;2023-05-02T01:29:19;7.63;;;4.55;;
11596;SDS011;5854;48.072;16.286;2023-05-02T01:31:48;5.65;;;4.20;;
11596;SDS011;5854;48.072;16.286;2023-05-02T01:34:16;6.05;;;5.45;;
11596;SDS011;5854;48.072;16.286;2023-05-02T01:36:47;6.10;;;5.57;;
11596;SDS011;5854;48.072;16.286;2023-05-02T01:39:17;6.97;;;4.57;;
11596;SDS011;5854;48.072;16.286;2023-05-02T01:41:47;5.28;;;4.97;;
11596;SDS011;5854;48.072;16.286;2023-05-02T01:44:19;6.20;;;5.70;;
11596;SDS011;5854;48.072;16.286;2023-05-02T01:46:48;5.68;;;5.18;;
11596;SDS011;5854;48.072;16.286;2023-05-02T01:49:17;5.50;;;5.00;;
11596;SDS011;5854;48.072;16.286;2023-05-02T01:51:46;6.60;;;6.15;;
11596;SDS011;5854;48.072;16.286;2023-05-02T01:54:16;6.72;;;6.30;;
11596;SDS011;5854;48.072;16.286;2023-05-02T01:56:45;6.28;;;5.80;;
11596;SDS011;5854;48.072;16.286;2023-05-02T01:59:14;7.22;;;6.78;;
11596;SDS011;5854;48.072;16.286;2023-05-02T02:01:45;7.20;;;6.70;;
11596;SDS011;5854;48.072;16.286;2023-05-02T02:04:15;8.35;;;6.93;;
11596;SDS011;5854;48.072;16.286;2023-05-02T02:06:45;5.47;;;4.93;;
11596;SDS011;5854;48.072;16.286;2023-05-02T02:09:20;7.60;;;7.00;;
11596;SDS011;5854;48.072;16.286;2023-05-02T02:11:48;7.20;;;6.72;;
11596;SDS011;5854;48.072;16.286;2023-05-02T02:14:24;6.82;;;6.32;;
11596;SDS011;5854;48.072;16.286;2023-05-02T02:17:00;7.10;;;6.57;;
11596;SDS011;5854;48.072;16.286;2023-05-02T02:19:31;6.07;;;5.68;;
11596;SDS011;5854;48.072;16.286;2023-05-02T02:21:59;7.88;;;7.28;;
11596;SDS011;5854;48.072;16.286;2023-05-02T02:24:30;7.32;;;6.72;;
11596;SDS011;5854;48.072;16.286;2023-05-02T02:27:01;5.85;;;5.45;;
11596;SDS011;5854;48.072;16.286;2023-05-02T02:29:29;6.55;;;5.80;;
11596;SDS011;5854;48.072;16.286;2023-05-02T02:31:56;7.65;;;6.85;;
11596;SDS011;5854;48.072;16.286;2023-05-02T02:34:23;9.20;;;8.40;;
11596;SDS011;5854;48.072;16.286;2023-05-02T02:36:52;7.38;;;6.78;;
11596;SDS011;5854;48.072;16.286;2023-05-02T02:39:27;8.55;;;7.80;;
11596;SDS011;5854;48.072;16.286;2023-05-02T02:42:09;6.85;;;6.25;;
11596;SDS011;5854;48.072;16.286;2023-05-02T02:44:46;7.55;;;6.95;;
11596;SDS011;5854;48.072;16.286;2023-05-02T02:47:22;6.32;;;5.93;;
11596;SDS011;5854;48.072;16.286;2023-05-02T02:50:06;6.93;;;6.25;;
11596;SDS011;5854;48.072;16.286;2023-05-02T02:52:46;10.40;;;7.15;;
11596;SDS011;5854;48.072;16.286;2023-05-02T02:55:21;10.38;;;6.82;;
11596;SDS011;5854;48.072;16.286;2023-05-02T02:58:06;7.25;;;6.55;;
11596;SDS011;5854;48.072;16.286;2023-05-02T03:00:53;6.75;;;6.25;;
11596;SDS011;5854;48.072;16.286;2023-05-02T03:03:21;6.13;;;5.75;;
11596;SDS011;5854;48.072;16.286;2023-05-02T03:05:53;5.78;;;5.47;;
11596;SDS011;5854;48.072;16.286;2023-05-02T03:08:20;6.55;;;6.05;;
11596;SDS011;5854;48.072;16.286;2023-05-02T03:10:48;6.57;;;5.25;;
11596;SDS011;5854;48.072;16.286;2023-05-02T03:13:15;7.13;;;6.43;;
11596;SDS011;5854;48.072;16.286;2023-05-02T03:15:54;7.22;;;6.30;;
11596;SDS011;5854;48.072;16.286;2023-05-02T03:18:56;6.85;;;6.18;;
11596;SDS011;5854;48.072;16.286;2023-05-02T03:21:23;6.07;;;5.57;;
11596;SDS011;5854;48.072;16.286;2023-05-02T03:23:50;6.97;;;6.28;;
11596;SDS011;5854;48.072;16.286;2023-05-02T03:26:17;6.68;;;6.22;;
11596;SDS011;5854;48.072;16.286;2023-05-02T03:28:45;7.43;;;6.43;;
11596;SDS011;5854;48.072;16.286;2023-05-02T03:31:13;6.03;;;5.38;;
11596;SDS011;5854;48.072;16.286;2023-05-02T03:33:40;5.80;;;5.38;;
11596;SDS011;5854;48.072;16.286;2023-05-02T03:36:07;5.78;;;5.28;;
11596;SDS011;5854;48.072;16.286;2023-05-02T03:38:35;5.50;;;4.72;;
11596;SDS011;5854;48.072;16.286;2023-05-02T03:41:02;6.07;;;5.63;;
11596;SDS011;5854;48.072;16.286;2023-05-02T03:43:30;6.40;;;5.90;;
11596;SDS011;5854;48.072;16.286;2023-05-02T03:45:57;4.22;;;3.92;;
11596;SDS011;5854;48.072;16.286;2023-05-02T03:48:32;4.95;;;4.53;;
11596;SDS011;5854;48.072;16.286;2023-05-02T03:50:59;5.05;;;4.65;;
11596;SDS011;5854;48.072;16.286;2023-05-02T03:53:27;5.53;;;5.03;;
11596;SDS011;5854;48.072;16.286;2023-05-02T03:55:55;5.47;;;4.32;;
11596;SDS011;5854;48.072;16.286;2023-05-02T03:58:22;4.95;;;4.50;;
11596;SDS011;5854;48.072;16.286;2023-05-02T04:00:51;7.30;;;6.57;;
11596;SDS011;5854;48.072;16.286;2023-05-02T04:03:18;5.47;;;5.10;;
11596;SDS011;5854;48.072;16.286;2023-05-02T04:05:47;5.93;;;5.43;;
11596;SDS011;5854;48.072;16.286;2023-05-02T04:08:15;6.03;;;5.53;;
11596;SDS011;5854;48.072;16.286;2023-05-02T04:10:42;6.20;;;5.18;;
11596;SDS011;5854;48.072;16.286;2023-05-02T04:13:09;6.47;;;5.88;;
11596;SDS011;5854;48.072;16.286;2023-05-02T04:15:37;5.75;;;5.35;;
11596;SDS011;5854;48.072;16.286;2023-05-02T04:18:04;5.93;;;5.22;;
11596;SDS011;5854;48.072;16.286;2023-05-02T04:20:31;5.43;;;5.03;;
11596;SDS011;5854;48.072;16.286;2023-05-02T04:23:00;5.80;;;5.30;;
11596;SDS011;5854;48.072;16.286;2023-05-02T04:25:27;7.13;;;5.38;;
11596;SDS011;5854;48.072;16.286;2023-05-02T04:27:54;6.07;;;5.47;;
11596;SDS011;5854;48.072;16.286;2023-05-02T04:30:21;6.35;;;5.93;;
11596;SDS011;5854;48.072;16.286;2023-05-02T04:32:48;5.07;;;4.72;;
11596;SDS011;5854;48.072;16.286;2023-05-02T04:35:16;5.25;;;4.90;;
11596;SDS011;5854;48.072;16.286;2023-05-02T04:37:43;5.85;;;5.45;;
11596;SDS011;5854;48.072;16.286;2023-05-02T04:40:12;6.43;;;5.93;;
11596;SDS011;5854;48.072;16.286;2023-05-02T04:42:39;6.72;;;6.13;;
11596;SDS011;5854;48.072;16.286;2023-05-02T04:45:07;5.53;;;5.03;;
11596;SDS011;5854;48.072;16.286;2023-05-02T04:47:34;5.68;;;5.20;;
11596;SDS011;5854;48.072;16.286;2023-05-02T04:50:02;5.75;;;5.35;;
11596;SDS011;5854;48.072;16.286;2023-05-02T04:52:29;6.25;;;5.85;;
11596;SDS011;5854;48.072;16.286;2023-05-02T04:54:56;7.20;;;4.85;;
11596;SDS011;5854;48.072;16.286;2023-05-02T04:57:25;6.47;;;5.88;;
11596;SDS011;5854;48.072;16.286;2023-05-02T04:59:52;5.72;;;5.32;;
11596;SDS011;5854;48.072;16.286;2023-05-02T05:02:20;6.32;;;5.80;;
11596;SDS011;5854;48.072;16.286;2023-05-02T05:04:47;6.15;;;5.75;;
11596;SDS011;5854;48.072;16.286;2023-05-02T05:07:14;6.70;;;6.10;;
11596;SDS011;5854;48.072;16.286;2023-05-02T05:09:41;6.50;;;6.00;;
11596;SDS011;5854;48.072;16.286;2023-05-02T05:12:08;4.97;;;4.57;;
11596;SDS011;5854;48.072;16.286;2023-05-02T05:14:36;5.93;;;5.43;;
11596;SDS011;5854;48.072;16.286;2023-05-02T05:17:03;5.68;;;5.20;;
11596;SDS011;5854;48.072;16.286;2023-05-02T05:19:30;6.40;;;4.80;;
11596;SDS011;5854;48.072;16.286;2023-05-02T05:21:57;5.70;;;4.97;;
11596;SDS011;5854;48.072;16.286;2023-05-02T05:24:24;5.55;;;4.80;;
11596;SDS011;5854;48.072;16.286;2023-05-02T05:26:52;5.38;;;4.93;;
11596;SDS011;5854;48.072;16.286;2023-05-02T05:29:19;5.38;;;4.97;;
11596;SDS011;5854;48.072;16.286;2023-05-02T05:31:47;6.53;;;5.53;;
11596;SDS011;5854;48.072;16.286;2023-05-02T05:34:16;4.90;;;4.60;;
11596;SDS011;5854;48.072;16.286;2023-05-02T05:36:45;5.15;;;4.75;;
11596;SDS011;5854;48.072;16.286;2023-05-02T05:39:12;6.85;;;4.78;;
11596;SDS011;5854;48.072;16.286;2023-05-02T05:41:39;4.03;;;3.72;;
11596;SDS011;5854;48.072;16.286;2023-05-02T05:44:07;5.07;;;4.78;;
11596;SDS011;5854;48.072;16.286;2023-05-02T05:46:34;4.35;;;4.05;;
11596;SDS011;5854;48.072;16.286;2023-05-02T05:49:02;5.10;;;4.70;;
11596;SDS011;5854;48.072;16.286;2023-05-02T05:51:30;7.18;;;4.22;;
11596;SDS011;5854;48.072;16.286;2023-05-02T05:53:57;5.55;;;4.93;;
11596;SDS011;5854;48.072;16.286;2023-05-02T05:56:24;11.25;;;4.75;;
11596;SDS011;5854;48.072;16.286;2023-05-02T05:58:51;6.10;;;4.93;;
11596;SDS011;5854;48.072;16.286;2023-05-02T06:01:18;5.15;;;4.40;;
11596;SDS011;5854;48.072;16.286;2023-05-02T06:03:46;5.18;;;4.22;;
11596;SDS011;5854;48.072;16.286;2023-05-02T06:06:14;5.43;;;5.07;;
11596;SDS011;5854;48.072;16.286;2023-05-02T06:08:41;5.68;;;4.45;;
11596;SDS011;5854;48.072;16.286;2023-05-02T06:11:09;4.65;;;4.25;;
11596;SDS011;5854;48.072;16.286;2023-05-02T06:13:36;5.70;;;5.20;;
11596;SDS011;5854;48.072;16.286;2023-05-02T06:16:03;6.30;;;5.00;;
11596;SDS011;5854;48.072;16.286;2023-05-02T06:18:31;6.28;;;4.50;;
11596;SDS011;5854;48.072;16.286;2023-05-02T06:21:02;5.00;;;4.60;;
11596;SDS011;5854;48.072;16.286;2023-05-02T06:23:30;3.83;;;3.53;;
11596;SDS011;5854;48.072;16.286;2023-05-02T06:25:58;5.13;;;4.57;;
11596;SDS011;5854;48.072;16.286;2023-05-02T06:28:26;5.22;;;4.82;;
11596;SDS011;5854;48.072;16.286;2023-05-02T06:30:57;4.63;;;4.22;;
11596;SDS011;5854;48.072;16.286;2023-05-02T06:33:31;6.47;;;5.88;;
11596;SDS011;5854;48.072;16.286;2023-05-02T06:35:59;6.75;;;4.82;;
11596;SDS011;5854;48.072;16.286;2023-05-02T06:38:30;5.30;;;4.80;;
11596;SDS011;5854;48.072;16.286;2023-05-02T06:41:02;4.90;;;4.53;;
11596;SDS011;5854;48.072;16.286;2023-05-02T06:43:39;6.30;;;5.78;;
11596;SDS011;5854;48.072;16.286;2023-05-02T06:46:07;6.13;;;5.72;;
11596;SDS011;5854;48.072;16.286;2023-05-02T06:48:34;7.25;;;6.60;;
11596;SDS011;5854;48.072;16.286;2023-05-02T06:51:01;9.15;;;5.82;;
11596;SDS011;5854;48.072;16.286;2023-05-02T06:53:29;5.32;;;5.03;;
11596;SDS011;5854;48.072;16.286;2023-05-02T06:55:58;5.97;;;5.47;;
11596;SDS011;5854;48.072;16.286;2023-05-02T06:58:25;5.82;;;5.32;;
11596;SDS011;5854;48.072;16.286;2023-05-02T07:00:52;6.72;;;6.05;;
11596;SDS011;5854;48.072;16.286;2023-05-02T07:03:19;6.28;;;5.78;;
11596;SDS011;5854;48.072;16.286;2023-05-02T07:05:47;6.35;;;5.85;;
11596;SDS011;5854;48.072;16.286;2023-05-02T07:08:14;6.85;;;6.35;;
11596;SDS011;5854;48.072;16.286;2023-05-02T07:10:44;5.68;;;5.28;;
11596;SDS011;5854;48.072;16.286;2023-05-02T07:13:11;7.65;;;5.35;;
11596;SDS011;5854;48.072;16.286;2023-05-02T07:15:38;6.18;;;5.30;;
11596;SDS011;5854;48.072;16.286;2023-05-02T07:18:05;5.28;;;4.88;;
11596;SDS011;5854;48.072;16.286;2023-05-02T07:20:32;6.30;;;5.05;;
11596;SDS011;5854;48.072;16.286;2023-05-02T07:22:59;5.57;;;5.18;;
11596;SDS011;5854;48.072;16.286;2023-05-02T07:25:26;6.50;;;6.10;;
11596;SDS011;5854;48.072;16.286;2023-05-02T07:27:55;7.43;;;6.85;;
11596;SDS011;5854;48.072;16.286;2023-05-02T07:30:22;7.07;;;5.93;;
11596;SDS011;5854;48.072;16.286;2023-05-02T07:32:49;6.88;;;6.38;;
11596;SDS011;5854;48.072;16.286;2023-05-02T07:35:16;7.43;;;6.82;;
11596;SDS011;5854;48.072;16.286;2023-05-02T07:37:43;7.10;;;6.60;;
11596;SDS011;5854;48.072;16.286;2023-05-02T07:40:10;8.70;;;6.53;;
11596;SDS011;5854;48.072;16.286;2023-05-02T07:42:38;8.07;;;7.43;;
11596;SDS011;5854;48.072;16.286;2023-05-02T07:45:07;6.45;;;5.95;;
11596;SDS011;5854;48.072;16.286;2023-05-02T07:47:35;7.13;;;6.63;;
11596;SDS011;5854;48.072;16.286;2023-05-02T07:50:03;7.95;;;7.28;;
11596;SDS011;5854;48.072;16.286;2023-05-02T07:52:31;6.70;;;6.20;;
11596;SDS011;5854;48.072;16.286;2023-05-02T07:54:58;8.98;;;5.68;;
11596;SDS011;5854;48.072;16.286;2023-05-02T07:57:26;4.40;;;4.10;;
11596;SDS011;5854;48.072;16.286;2023-05-02T07:59:53;6.05;;;5.68;;
11596;SDS011;5854;48.072;16.286;2023-05-02T08:02:22;5.75;;;5.35;;
11596;SDS011;5854;48.072;16.286;2023-05-02T08:04:50;5.35;;;5.05;;
11596;SDS011;5854;48.072;16.286;2023-05-02T08:07:18;5.47;;;4.43;;
11596;SDS011;5854;48.072;16.286;2023-05-02T08:09:45;5.30;;;5.00;;
11596;SDS011;5854;48.072;16.286;2023-05-02T08:12:12;3.55;;;3.35;;
11596;SDS011;5854;48.072;16.286;2023-05-02T08:14:39;3.25;;;3.05;;
11596;SDS011;5854;48.072;16.286;2023-05-02T08:17:06;3.67;;;3.47;;
11596;SDS011;5854;48.072;16.286;2023-05-02T08:19:35;3.53;;;3.33;;
11596;SDS011;5854;48.072;16.286;2023-05-02T08:22:02;2.75;;;2.55;;
11596;SDS011;5854;48.072;16.286;2023-05-02T08:24:29;2.50;;;2.30;;
11596;SDS011;5854;48.072;16.286;2023-05-02T08:31:53;1.90;;;1.80;;
11596;SDS011;5854;48.072;16.286;2023-05-02T08:34:22;2.25;;;2.05;;
11596;SDS011;5854;48.072;16.286;2023-05-02T08:36:52;3.28;;;1.75;;
11596;SDS011;5854;48.072;16.286;2023-05-02T08:39:21;1.88;;;1.77;;
11596;SDS011;5854;48.072;16.286;2023-05-02T08:41:53;2.10;;;2.00;;
11596;SDS011;5854;48.072;16.286;2023-05-02T08:44:21;2.00;;;1.90;;
11596;SDS011;5854;48.072;16.286;2023-05-02T08:46:51;1.80;;;1.70;;
11596;SDS011;5854;48.072;16.286;2023-05-02T08:49:21;1.90;;;1.80;;
11596;SDS011;5854;48.072;16.286;2023-05-02T08:51:55;2.10;;;2.00;;
11596;SDS011;5854;48.072;16.286;2023-05-02T08:54:26;1.70;;;1.60;;
11596;SDS011;5854;48.072;16.286;2023-05-02T08:56:54;1.60;;;1.50;;
11596;SDS011;5854;48.072;16.286;2023-05-02T08:59:23;2.17;;;1.88;;
11596;SDS011;5854;48.072;16.286;2023-05-02T09:01:54;2.75;;;1.85;;
11596;SDS011;5854;48.072;16.286;2023-05-02T09:04:28;1.23;;;1.20;;
11596;SDS011;5854;48.072;16.286;2023-05-02T09:07:01;3.75;;;1.77;;
11596;SDS011;5854;48.072;16.286;2023-05-02T09:09:29;1.80;;;1.70;;
11596;SDS011;5854;48.072;16.286;2023-05-02T09:11:59;3.08;;;1.63;;
11596;SDS011;5854;48.072;16.286;2023-05-02T09:14:28;1.58;;;1.48;;
11596;SDS011;5854;48.072;16.286;2023-05-02T09:16:57;3.75;;;1.98;;
11596;SDS011;5854;48.072;16.286;2023-05-02T09:19:25;1.60;;;1.50;;
11596;SDS011;5854;48.072;16.286;2023-05-02T09:21:59;1.67;;;1.58;;
11596;SDS011;5854;48.072;16.286;2023-05-02T09:24:40;1.48;;;1.20;;
11596;SDS011;5854;48.072;16.286;2023-05-02T09:27:19;1.60;;;1.50;;
11596;SDS011;5854;48.072;16.286;2023-05-02T09:29:54;1.48;;;1.38;;
11596;SDS011;5854;48.072;16.286;2023-05-02T09:32:54;2.08;;;1.60;;
11596;SDS011;5854;48.072;16.286;2023-05-02T09:35:28;2.13;;;1.70;;
11596;SDS011;5854;48.072;16.286;2023-05-02T09:37:57;1.55;;;1.45;;
11596;SDS011;5854;48.072;16.286;2023-05-02T09:40:28;1.70;;;1.60;;
11596;SDS011;5854;48.072;16.286;2023-05-02T09:43:00;1.60;;;1.50;;
11596;SDS011;5854;48.072;16.286;2023-05-02T09:45:45;1.50;;;1.40;;
11596;SDS011;5854;48.072;16.286;2023-05-02T09:48:25;3.00;;;1.55;;
11596;SDS011;5854;48.072;16.286;2023-05-02T09:51:04;1.75;;;1.55;;
11596;SDS011;5854;48.072;16.286;2023-05-02T09:54:07;2.42;;;1.67;;
11596;SDS011;5854;48.072;16.286;2023-05-02T09:56:51;2.30;;;2.20;;
11596;SDS011;5854;48.072;16.286;2023-05-02T09:59:31;2.22;;;2.13;;
11596;SDS011;5854;48.072;16.286;2023-05-02T10:04:42;2.67;;;2.45;;
11596;SDS011;5854;48.072;16.286;2023-05-02T10:07:25;3.38;;;2.70;;
11596;SDS011;5854;48.072;16.286;2023-05-02T10:09:53;3.60;;;3.30;;
11596;SDS011;5854;48.072;16.286;2023-05-02T10:12:24;3.28;;;2.97;;
11596;SDS011;5854;48.072;16.286;2023-05-02T10:14:59;2.90;;;2.08;;
11596;SDS011;5854;48.072;16.286;2023-05-02T10:17:30;2.83;;;2.60;;
11596;SDS011;5854;48.072;16.286;2023-05-02T10:20:08;4.03;;;3.30;;
11596;SDS011;5854;48.072;16.286;2023-05-02T10:22:40;4.20;;;3.80;;
11596;SDS011;5854;48.072;16.286;2023-05-02T10:25:09;3.50;;;3.30;;
11596;SDS011;5854;48.072;16.286;2023-05-02T10:27:38;5.10;;;4.65;;
11596;SDS011;5854;48.072;16.286;2023-05-02T10:30:08;5.03;;;4.72;;
11596;SDS011;5854;48.072;16.286;2023-05-02T10:32:38;4.63;;;4.22;;
11596;SDS011;5854;48.072;16.286;2023-05-02T10:35:06;4.30;;;4.00;;
11596;SDS011;5854;48.072;16.286;2023-05-02T10:37:35;4.60;;;4.30;;
11596;SDS011;5854;48.072;16.286;2023-05-02T10:40:05;4.30;;;4.00;;
11596;SDS011;5854;48.072;16.286;2023-05-02T10:42:36;4.68;;;4.32;;
11596;SDS011;5854;48.072;16.286;2023-05-02T10:45:09;4.35;;;4.05;;
11596;SDS011;5854;48.072;16.286;2023-05-02T10:47:37;4.38;;;4.07;;
11596;SDS011;5854;48.072;16.286;2023-05-02T10:50:04;4.78;;;4.47;;
11596;SDS011;5854;48.072;16.286;2023-05-02T10:52:34;5.38;;;4.82;;
11596;SDS011;5854;48.072;16.286;2023-05-02T10:55:17;4.57;;;4.30;;
11596;SDS011;5854;48.072;16.286;2023-05-02T11:00:47;5.82;;;4.55;;
11596;SDS011;5854;48.072;16.286;2023-05-02T11:03:15;4.50;;;4.20;;
11596;SDS011;5854;48.072;16.286;2023-05-02T11:06:19;5.65;;;5.15;;
11596;SDS011;5854;48.072;16.286;2023-05-02T11:08:47;4.65;;;4.25;;
11596;SDS011;5854;48.072;16.286;2023-05-02T11:14:03;4.30;;;4.00;;
11596;SDS011;5854;48.072;16.286;2023-05-02T11:22:57;4.05;;;3.75;;
11596;SDS011;5854;48.072;16.286;2023-05-02T11:25:34;3.75;;;3.45;;
11596;SDS011;5854;48.072;16.286;2023-05-02T11:28:05;3.90;;;3.53;;
11596;SDS011;5854;48.072;16.286;2023-05-02T11:30:37;4.10;;;3.80;;
11596;SDS011;5854;48.072;16.286;2023-05-02T11:33:15;4.32;;;4.03;;
11596;SDS011;5854;48.072;16.286;2023-05-02T11:35:44;4.10;;;3.90;;
11596;SDS011;5854;48.072;16.286;2023-05-02T11:38:14;3.67;;;3.28;;
11596;SDS011;5854;48.072;16.286;2023-05-02T11:40:56;3.65;;;3.45;;
11596;SDS011;5854;48.072;16.286;2023-05-02T11:43:25;3.25;;;3.00;;
11596;SDS011;5854;48.072;16.286;2023-05-02T11:45:53;3.33;;;3.10;;
11596;SDS011;5854;48.072;16.286;2023-05-02T11:48:22;3.10;;;2.90;;
11596;SDS011;5854;48.072;16.286;2023-05-02T11:50:52;4.03;;;3.72;;
11596;SDS011;5854;48.072;16.286;2023-05-02T11:53:22;4.63;;;4.22;;
11596;SDS011;5854;48.072;16.286;2023-05-02T11:55:52;3.13;;;2.92;;
11596;SDS011;5854;48.072;16.286;2023-05-02T11:58:23;3.42;;;3.03;;
11596;SDS011;5854;48.072;16.286;2023-05-02T12:00:53;3.75;;;3.45;;
11596;SDS011;5854;48.072;16.286;2023-05-02T12:03:28;6.30;;;4.45;;
11596;SDS011;5854;48.072;16.286;2023-05-02T12:06:07;3.65;;;3.35;;
11596;SDS011;5854;48.072;16.286;2023-05-02T12:08:35;4.75;;;3.50;;
11596;SDS011;5854;48.072;16.286;2023-05-02T12:11:03;2.88;;;2.75;;
11596;SDS011;5854;48.072;16.286;2023-05-02T12:13:32;3.97;;;3.47;;
11596;SDS011;5854;48.072;16.286;2023-05-02T12:15:59;3.53;;;3.33;;
11596;SDS011;5854;48.072;16.286;2023-05-02T12:18:27;3.75;;;3.45;;
11596;SDS011;5854;48.072;16.286;2023-05-02T12:20:54;3.15;;;2.95;;
11596;SDS011;5854;48.072;16.286;2023-05-02T12:23:23;3.42;;;3.22;;
11596;SDS011;5854;48.072;16.286;2023-05-02T12:25:51;3.33;;;3.00;;
11596;SDS011;5854;48.072;16.286;2023-05-02T12:28:19;3.38;;;3.17;;
11596;SDS011;5854;48.072;16.286;2023-05-02T12:30:49;7.15;;;3.20;;
11596;SDS011;5854;48.072;16.286;2023-05-02T12:33:17;3.17;;;2.97;;
11596;SDS011;5854;48.072;16.286;2023-05-02T12:35:44;3.35;;;3.15;;
11596;SDS011;5854;48.072;16.286;2023-05-02T12:38:13;7.82;;;4.05;;
11596;SDS011;5854;48.072;16.286;2023-05-02T12:40:48;3.50;;;3.15;;
11596;SDS011;5854;48.072;16.286;2023-05-02T12:43:17;2.92;;;2.72;;
11596;SDS011;5854;48.072;16.286;2023-05-02T12:45:46;3.58;;;3.33;;
11596;SDS011;5854;48.072;16.286;2023-05-02T12:50:46;4.25;;;3.90;;
11596;SDS011;5854;48.072;16.286;2023-05-02T12:53:13;4.25;;;3.95;;
11596;SDS011;5854;48.072;16.286;2023-05-02T12:55:41;4.00;;;3.72;;
11596;SDS011;5854;48.072;16.286;2023-05-02T12:58:08;4.03;;;3.60;;
11596;SDS011;5854;48.072;16.286;2023-05-02T13:00:38;3.50;;;3.30;;
11596;SDS011;5854;48.072;16.286;2023-05-02T13:03:08;3.17;;;2.97;;
11596;SDS011;5854;48.072;16.286;2023-05-02T13:05:35;3.67;;;3.35;;
11596;SDS011;5854;48.072;16.286;2023-05-02T13:08:03;3.53;;;3.33;;
11596;SDS011;5854;48.072;16.286;2023-05-02T13:10:31;3.70;;;3.50;;
11596;SDS011;5854;48.072;16.286;2023-05-02T13:12:58;5.65;;;3.72;;
11596;SDS011;5854;48.072;16.286;2023-05-02T13:15:25;4.70;;;4.40;;
11596;SDS011;5854;48.072;16.286;2023-05-02T13:17:53;4.45;;;4.10;;
11596;SDS011;5854;48.072;16.286;2023-05-02T13:20:22;4.03;;;3.72;;
11596;SDS011;5854;48.072;16.286;2023-05-02T13:22:49;5.00;;;4.57;;
11596;SDS011;5854;48.072;16.286;2023-05-02T13:25:16;4.43;;;4.03;;
11596;SDS011;5854;48.072;16.286;2023-05-02T13:27:43;3.97;;;3.67;;
11596;SDS011;5854;48.072;16.286;2023-05-02T13:30:10;4.07;;;3.70;;
11596;SDS011;5854;48.072;16.286;2023-05-02T13:32:37;4.07;;;3.75;;
11596;SDS011;5854;48.072;16.286;2023-05-02T13:35:06;5.55;;;3.90;;
11596;SDS011;5854;48.072;16.286;2023-05-02T13:37:35;4.47;;;4.18;;
11596;SDS011;5854;48.072;16.286;2023-05-02T13:40:03;5.15;;;4.72;;
11596;SDS011;5854;48.072;16.286;2023-05-02T13:42:32;5.35;;;4.97;;
11596;SDS011;5854;48.072;16.286;2023-05-02T13:44:59;7.07;;;4.30;;
11596;SDS011;5854;48.072;16.286;2023-05-02T13:47:28;4.95;;;4.47;;
11596;SDS011;5854;48.072;16.286;2023-05-02T13:49:55;5.03;;;4.57;;
11596;SDS011;5854;48.072;16.286;2023-05-02T13:52:22;5.07;;;4.68;;
11596;SDS011;5854;48.072;16.286;2023-05-02T13:54:50;5.43;;;4.93;;
11596;SDS011;5854;48.072;16.286;2023-05-02T13:57:17;4.63;;;4.20;;
11596;SDS011;5854;48.072;16.286;2023-05-02T13:59:44;5.57;;;4.55;;
11596;SDS011;5854;48.072;16.286;2023-05-02T14:02:11;8.77;;;4.57;;
11596;SDS011;5854;48.072;16.286;2023-05-02T14:04:39;5.85;;;4.82;;
11596;SDS011;5854;48.072;16.286;2023-05-02T14:07:06;5.22;;;4.82;;
11596;SDS011;5854;48.072;16.286;2023-05-02T14:09:33;5.05;;;4.65;;
11596;SDS011;5854;48.072;16.286;2023-05-02T14:12:01;5.65;;;5.28;;
11596;SDS011;5854;48.072;16.286;2023-05-02T14:14:29;4.90;;;4.60;;
11596;SDS011;5854;48.072;16.286;2023-05-02T14:16:56;4.93;;;4.43;;
11596;SDS011;5854;48.072;16.286;2023-05-02T14:19:23;5.22;;;4.82;;
11596;SDS011;5854;48.072;16.286;2023-05-02T14:21:50;4.50;;;4.20;;
11596;SDS011;5854;48.072;16.286;2023-05-02T14:24:17;5.30;;;4.90;;
11596;SDS011;5854;48.072;16.286;2023-05-02T14:26:44;4.68;;;4.38;;
11596;SDS011;5854;48.072;16.286;2023-05-02T14:29:13;4.50;;;4.20;;
11596;SDS011;5854;48.072;16.286;2023-05-02T14:31:40;5.72;;;4.50;;
11596;SDS011;5854;48.072;16.286;2023-05-02T14:34:07;5.05;;;4.75;;
11596;SDS011;5854;48.072;16.286;2023-05-02T14:36:34;4.65;;;4.35;;
11596;SDS011;5854;48.072;16.286;2023-05-02T14:39:01;4.20;;;3.90;;
11596;SDS011;5854;48.072;16.286;2023-05-02T14:41:28;6.45;;;6.03;;
11596;SDS011;5854;48.072;16.286;2023-05-02T14:43:55;5.80;;;5.50;;
11596;SDS011;5854;48.072;16.286;2023-05-02T14:46:24;5.50;;;5.20;;
11596;SDS011;5854;48.072;16.286;2023-05-02T14:48:51;5.63;;;5.22;;
11596;SDS011;5854;48.072;16.286;2023-05-02T14:51:18;5.68;;;5.28;;
11596;SDS011;5854;48.072;16.286;2023-05-02T14:53:46;5.95;;;5.38;;
11596;SDS011;5854;48.072;16.286;2023-05-02T14:56:13;5.10;;;4.70;;
11596;SDS011;5854;48.072;16.286;2023-05-02T14:58:42;5.65;;;5.32;;
11596;SDS011;5854;48.072;16.286;2023-05-02T15:01:16;5.03;;;4.68;;
11596;SDS011;5854;48.072;16.286;2023-05-02T15:03:45;5.25;;;4.95;;
11596;SDS011;5854;48.072;16.286;2023-05-02T15:06:14;6.25;;;5.75;;
11596;SDS011;5854;48.072;16.286;2023-05-02T15:08:41;4.88;;;4.57;;
11596;SDS011;5854;48.072;16.286;2023-05-02T15:11:09;4.75;;;4.43;;
11596;SDS011;5854;48.072;16.286;2023-05-02T15:13:36;5.93;;;5.35;;
11596;SDS011;5854;48.072;16.286;2023-05-02T15:16:03;5.88;;;4.28;;
11596;SDS011;5854;48.072;16.286;2023-05-02T15:18:31;6.28;;;5.75;;
11596;SDS011;5854;48.072;16.286;2023-05-02T15:20:59;4.82;;;4.40;;
11596;SDS011;5854;48.072;16.286;2023-05-02T15:23:26;4.80;;;4.40;;
11596;SDS011;5854;48.072;16.286;2023-05-02T15:25:53;4.40;;;4.10;;